Flight Track Log - Related Links

Times and Time Zones

All times are in EST time to prevent confusion due to time zone crossing. See the KLM1818 flight status page for this flight to view local times or setup timezone preferences in your user account.

Time Position Orientation Groundspeed Altitude Reporting Facility
EST Latitude Longitude Course Direction KTS MPH feet Rate Location/Type
Wed 12:05:49 AM 52.5621 12.7018 270° West  Level Estimated
Wed 12:06:49 AM 52.5622 12.6011 270° West  Level Estimated
Wed 12:07:49 AM 52.5622 12.5004 270° West  Level Estimated
Wed 12:08:49 AM 52.5622 12.3997 270° West  Level Estimated
Wed 12:09:49 AM 52.5621 12.2989 270° West  Level Estimated
Wed 12:10:49 AM 52.5619 12.1982 270° West  Level Estimated
Wed 12:11:49 AM 52.5615 12.0975 270° West  Level Estimated
Wed 12:12:49 AM 52.5611 11.9967 270° West  Level Estimated
Wed 12:13:49 AM 52.5607 11.8960 270° West  Level Estimated
Wed 12:14:49 AM 52.5601 11.7953 269° West  Level Estimated
Wed 12:15:49 AM 52.5595 11.6946 269° West  Level Estimated
Wed 12:16:49 AM 52.5587 11.5939 269° West  Level Estimated
Wed 12:17:49 AM 52.5579 11.4932 269° West  Level Estimated
Wed 12:18:49 AM 52.5570 11.3925 269° West  Level Estimated
Wed 12:19:49 AM 52.5560 11.2918 269° West  Level Estimated
Wed 12:20:49 AM 52.5550 11.1911 269° West  Level Estimated
Wed 12:21:49 AM 52.5538 11.0904 269° West  Level Estimated
Wed 12:22:49 AM 52.5526 10.9897 269° West  Level Estimated
Wed 12:23:49 AM 52.5512 10.8890 269° West  Level Estimated
Wed 12:24:49 AM 52.5498 10.7883 269° West  Level Estimated
Wed 12:25:49 AM 52.5483 10.6877 269° West  Level Estimated
Wed 12:26:49 AM 52.5467 10.5870 268° West  Level Estimated
Wed 12:27:49 AM 52.5450 10.4864 268° West  Level Estimated
Wed 12:28:49 AM 52.5433 10.3857 268° West  Level Estimated
Wed 12:29:49 AM 52.5414 10.2851 268° West  Level Estimated
Wed 12:30:49 AM 52.5395 10.1844 268° West  Level Estimated
Wed 12:31:49 AM 52.5375 10.0838 268° West  Level Estimated
Wed 12:32:49 AM 52.5354 9.9832 268° West  Level Estimated
Wed 12:33:49 AM 52.5332 9.8826 268° West  Level Estimated
Wed 12:34:49 AM 52.5309 9.7820 268° West  Level Estimated
Wed 12:35:49 AM 52.5286 9.6814 268° West  Level Estimated
Wed 12:36:49 AM 52.5262 9.5809 268° West  Level Estimated
Wed 12:37:49 AM 52.5236 9.4803 268° West  Level Estimated
Wed 12:38:49 AM 52.5210 9.3798 268° West  Level Estimated
Wed 12:39:49 AM 52.5183 9.2792 267° West  Level Estimated
Wed 12:40:49 AM 52.5145 9.1436 267° West  Level Estimated
Wed 12:41:49 AM 52.5106 9.0080 267° West  Level Estimated
Wed 12:42:49 AM 52.5065 8.8724 267° West  Level Estimated
Wed 12:43:49 AM 52.5023 8.7369 267° West  Level Estimated
Wed 12:44:49 AM 52.4979 8.6014 267° West  Level Estimated
Wed 12:45:49 AM 52.4934 8.4659 267° West  Level Estimated
Wed 12:46:49 AM 52.4887 8.3304 267° West  Level Estimated
Wed 12:47:49 AM 52.4838 8.1950 267° West  Level Estimated
Wed 12:48:49 AM 52.4788 8.0596 266° West  Level Estimated
Wed 12:49:49 AM 52.4736 7.9242 266° West  Level Estimated
Wed 12:50:49 AM 52.4683 7.7889 266° West  Level Estimated
Wed 12:51:49 AM 52.4628 7.6536 266° West  Level Estimated
Wed 12:52:49 AM 52.4572 7.5183 266° West  Level Estimated
Wed 12:53:49 AM 52.4514 7.3831 266° West  Level Estimated
Wed 12:54:49 AM 52.4455 7.2479 266° West  Level Estimated
Wed 12:55:49 AM 52.4394 7.1127 266° West  Level Estimated
Wed 12:56:49 AM 52.4332 6.9776 266° West  Level Estimated
Wed 12:57:49 AM 52.4268 6.8425 266° West  Level Estimated
Wed 12:58:49 AM 52.4202 6.7074 265° West  Level Estimated
Wed 12:59:49 AM 52.4135 6.5724 265° West  Level Estimated
Wed 01:00:49 AM 52.4067 6.4375 265° West  Level Estimated
Wed 01:01:49 AM 52.3996 6.3025 265° West  Level Estimated
Wed 01:02:49 AM 52.3935 6.1861 265° West  Level Estimated
Wed 01:03:49 AM 52.3872 6.0698 265° West  Level Estimated
Wed 01:04:49 AM 52.3808 5.9534 265° West  Level Estimated
Wed 01:05:49 AM 52.3742 5.8371 265° West  Level Estimated
Wed 01:06:49 AM 52.3676 5.7208 265° West  Level Estimated
Wed 01:07:49 AM 52.3609 5.6046 265° West  Level Estimated
Wed 01:08:49 AM 52.3540 5.4884 264° West  Level Estimated
Wed 01:09:49 AM 52.3470 5.3723 264° West  Level Estimated
Wed 01:10:49 AM 52.3400 5.2561 264° West  Level Estimated
Wed 01:11:49 AM 52.3327 5.1400 264° West  Level Estimated
Wed 01:12:49 AM 52.3254 5.0240 264° West  Level Estimated
Wed 01:13:49 AM 52.3180 4.9080 264° West  Level Estimated
Wed 01:14:49 AM 52.3105 4.7920 264° West  Level Estimated
Wed 01:15:49 AM 52.3028 4.6761 84° East  Level Estimated
Wed 01:16:49 AM 52.3105 4.7920 84° East  Level Estimated

Login

Don't have an account? Register now (free) for customized features, flight alerts, and more!